createdAt,value
2022-10-24T00:01:47.017Z,98286.94
2022-10-24T00:04:15.562Z,98278.72
2022-10-24T00:06:43.972Z,98278.72
2022-10-24T00:09:12.295Z,98291.41
2022-10-24T00:11:43.112Z,98291.25
2022-10-24T00:14:11.488Z,98277.00
2022-10-24T00:16:41.185Z,98276.44
2022-10-24T00:19:09.645Z,98286.06
2022-10-24T00:21:38.121Z,98277.22
2022-10-24T00:24:07.902Z,98282.13
2022-10-24T00:26:36.850Z,98285.28
2022-10-24T00:29:06.066Z,98279.31
2022-10-24T00:31:34.772Z,98280.06
2022-10-24T00:34:05.271Z,98288.19
2022-10-24T00:36:33.922Z,98265.69
2022-10-24T00:39:02.908Z,98266.97
2022-10-24T00:41:34.690Z,98260.03
2022-10-24T00:44:22.409Z,98267.84
2022-10-24T00:46:54.211Z,98265.81
2022-10-24T00:49:29.501Z,98259.53
2022-10-24T00:52:03.458Z,98276.19
2022-10-24T00:54:31.886Z,98273.38
2022-10-24T00:57:13.433Z,98259.84
2022-10-24T00:59:43.987Z,98248.81
2022-10-24T01:04:42.854Z,98261.38
2022-10-24T01:07:23.233Z,98252.50
2022-10-24T01:10:14.041Z,98251.34
2022-10-24T01:12:54.180Z,98245.31
2022-10-24T01:15:33.456Z,98255.16
2022-10-24T01:18:07.251Z,98251.38
2022-10-24T01:20:53.004Z,98240.06
2022-10-24T01:23:54.537Z,98232.16
2022-10-24T01:26:55.729Z,98234.72
2022-10-24T01:29:45.133Z,98229.75
2022-10-24T01:32:19.596Z,98245.56
2022-10-24T01:34:52.860Z,98235.50
2022-10-24T01:37:26.605Z,98244.00
2022-10-24T01:40:01.532Z,98241.56
2022-10-24T01:42:32.813Z,98231.22
2022-10-24T01:45:05.274Z,98232.91
2022-10-24T01:47:40.753Z,98228.22
2022-10-24T01:50:11.282Z,98232.06
2022-10-24T01:52:43.718Z,98223.97
2022-10-24T01:55:13.614Z,98227.25
2022-10-24T01:57:42.756Z,98227.38
2022-10-24T02:00:19.082Z,98237.19
2022-10-24T02:02:52.534Z,98226.31
2022-10-24T02:05:26.314Z,98231.84
2022-10-24T02:07:57.261Z,98223.97
2022-10-24T02:10:31.707Z,98230.88
2022-10-24T02:13:04.983Z,98232.91
2022-10-24T02:15:39.491Z,98230.47
2022-10-24T02:18:09.368Z,98223.09
2022-10-24T02:20:42.733Z,98224.81
2022-10-24T02:23:17.957Z,98218.41
2022-10-24T02:25:52.031Z,98223.09
2022-10-24T02:28:24.121Z,98222.91
2022-10-24T02:31:00.136Z,98216.09
2022-10-24T02:33:30.983Z,98210.56
2022-10-24T02:36:00.625Z,98208.31
2022-10-24T02:38:33.940Z,98207.56
2022-10-24T02:41:05.944Z,98210.66
2022-10-24T02:43:35.862Z,98214.81
2022-10-24T02:46:06.981Z,98208.41
2022-10-24T02:48:39.811Z,98216.41
2022-10-24T02:51:08.505Z,98208.97
2022-10-24T02:53:38.140Z,98209.16
2022-10-24T02:56:07.208Z,98198.19
2022-10-24T02:58:35.856Z,98203.19
2022-10-24T03:01:05.929Z,98199.91
2022-10-24T03:03:34.433Z,98213.72
2022-10-24T03:06:02.946Z,98214.38
2022-10-24T03:08:31.921Z,98203.66
2022-10-24T03:11:00.338Z,98197.69
2022-10-24T03:13:28.829Z,98210.66
2022-10-24T03:15:57.256Z,98190.13
2022-10-24T03:18:27.055Z,98201.84
2022-10-24T03:20:55.378Z,98212.56
2022-10-24T03:23:25.377Z,98207.25
2022-10-24T03:25:54.034Z,98198.50
2022-10-24T03:28:22.868Z,98196.69
2022-10-24T03:30:52.253Z,98176.91
2022-10-24T03:33:20.726Z,98202.00
2022-10-24T03:35:54.344Z,98198.19
2022-10-24T03:38:23.962Z,98199.78
2022-10-24T03:40:52.528Z,98188.72
2022-10-24T03:43:21.113Z,98189.69
2022-10-24T03:45:49.676Z,98186.38
2022-10-24T03:48:19.506Z,98182.34
2022-10-24T03:50:47.908Z,98175.31
2022-10-24T03:53:17.597Z,98175.94
2022-10-24T03:55:45.964Z,98160.50
2022-10-24T03:58:14.387Z,98171.28
2022-10-24T04:00:43.067Z,98168.72
2022-10-24T04:03:11.549Z,98159.91
2022-10-24T04:05:40.738Z,98163.41
2022-10-24T04:08:09.116Z,98165.41
2022-10-24T04:10:38.905Z,98163.94
2022-10-24T04:13:07.271Z,98168.50
2022-10-24T04:15:35.893Z,98177.66
2022-10-24T04:18:04.232Z,98180.84
2022-10-24T04:20:32.603Z,98179.88
2022-10-24T04:23:03.692Z,98181.28
2022-10-24T04:25:36.000Z,98198.19
2022-10-24T04:28:05.831Z,98192.88
2022-10-24T04:30:34.235Z,98184.66
2022-10-24T04:33:02.709Z,98178.19
2022-10-24T04:35:31.468Z,98197.13
2022-10-24T04:37:59.772Z,98188.38
2022-10-24T04:40:28.172Z,98197.88
2022-10-24T04:42:56.958Z,98195.19
2022-10-24T04:45:26.681Z,98197.19
2022-10-24T04:47:54.961Z,98192.84
2022-10-24T04:50:23.354Z,98206.88
2022-10-24T04:52:51.759Z,98194.44
2022-10-24T04:55:20.197Z,98201.44
2022-10-24T04:57:48.652Z,98205.59
2022-10-24T05:00:17.786Z,98210.38
2022-10-24T05:02:47.757Z,98209.53
2022-10-24T05:05:17.097Z,98217.81
2022-10-24T05:07:46.408Z,98221.50
2022-10-24T05:10:16.395Z,98222.69
2022-10-24T05:12:45.489Z,98230.94
2022-10-24T05:15:15.264Z,98227.97
2022-10-24T05:17:43.681Z,98227.75
2022-10-24T05:20:13.548Z,98231.03
2022-10-24T05:22:42.183Z,98230.19
2022-10-24T05:25:10.765Z,98235.41
2022-10-24T05:27:39.524Z,98223.28
2022-10-24T05:30:08.978Z,98223.88
2022-10-24T05:32:39.644Z,98226.31
2022-10-24T05:35:09.766Z,98236.88
2022-10-24T05:37:40.038Z,98230.50
2022-10-24T05:40:10.144Z,98230.69
2022-10-24T05:42:38.858Z,98232.69
2022-10-24T05:45:08.435Z,98246.34
2022-10-24T05:47:37.071Z,98233.38
2022-10-24T05:50:06.539Z,98231.47
2022-10-24T05:52:36.398Z,98238.47
2022-10-24T05:55:08.735Z,98235.47
2022-10-24T05:57:38.442Z,98252.47
2022-10-24T06:00:08.763Z,98239.00
2022-10-24T06:02:40.418Z,98245.25
2022-10-24T06:05:10.118Z,98237.59
2022-10-24T06:07:39.101Z,98248.78
2022-10-24T06:10:10.257Z,98242.31
2022-10-24T06:12:38.837Z,98265.84
2022-10-24T06:15:10.687Z,98268.13
2022-10-24T06:17:39.185Z,98258.63
2022-10-24T06:20:08.833Z,98264.13
2022-10-24T06:22:37.236Z,98267.72
2022-10-24T06:25:06.315Z,98259.19
2022-10-24T06:27:36.257Z,98270.31
2022-10-24T06:30:06.163Z,98269.72
2022-10-24T06:32:34.568Z,98279.28
2022-10-24T06:35:03.008Z,98278.69
2022-10-24T06:37:31.739Z,98281.25
2022-10-24T06:40:00.309Z,98284.16
2022-10-24T06:42:28.754Z,98289.84
2022-10-24T06:47:32.752Z,98284.88
2022-10-24T06:50:01.248Z,98280.88
2022-10-24T06:52:29.592Z,98289.19
2022-10-24T06:54:58.051Z,98290.69
2022-10-24T06:57:26.418Z,98296.66
2022-10-24T06:59:54.776Z,98297.13
2022-10-24T07:02:24.871Z,98301.31
2022-10-24T07:04:53.516Z,98310.06
2022-10-24T07:07:24.242Z,98313.91
2022-10-24T07:09:54.521Z,98317.53
2022-10-24T07:12:23.241Z,98323.69
2022-10-24T07:14:51.885Z,98325.53
2022-10-24T07:17:21.270Z,98334.16
2022-10-24T07:19:54.686Z,98335.31
2022-10-24T07:22:23.335Z,98334.88
2022-10-24T07:24:53.991Z,98338.59
2022-10-24T07:27:22.981Z,98324.66
2022-10-24T07:29:52.346Z,98344.91
2022-10-24T07:32:20.911Z,98336.47
2022-10-24T07:34:49.643Z,98355.31
2022-10-24T07:37:20.669Z,98358.81
2022-10-24T07:39:49.162Z,98355.53
2022-10-24T07:42:18.712Z,98369.97
2022-10-24T07:44:47.288Z,98377.16
2022-10-24T07:47:15.691Z,98365.13
2022-10-24T07:49:44.137Z,98368.16
2022-10-24T07:52:12.527Z,98373.94
2022-10-24T07:54:42.396Z,98362.47
2022-10-24T07:57:10.746Z,98371.19
2022-10-24T07:59:42.864Z,98355.63
2022-10-24T08:02:12.670Z,98366.09
2022-10-24T08:04:41.369Z,98368.19
2022-10-24T08:07:13.287Z,98366.19
2022-10-24T08:09:46.429Z,98375.03
2022-10-24T08:12:15.243Z,98368.00
2022-10-24T08:14:43.613Z,98368.38
2022-10-24T08:17:12.109Z,98357.50
2022-10-24T08:19:43.711Z,98356.78
2022-10-24T08:22:12.931Z,98366.38
2022-10-24T08:24:43.127Z,98374.13
2022-10-24T08:27:11.899Z,98366.34
2022-10-24T08:29:40.421Z,98365.44
2022-10-24T08:32:08.771Z,98373.00
2022-10-24T08:34:39.061Z,98381.94
2022-10-24T08:37:07.550Z,98377.28
2022-10-24T08:39:36.103Z,98377.28
2022-10-24T08:42:08.167Z,98396.13
2022-10-24T08:44:39.926Z,98388.22
2022-10-24T08:47:19.815Z,98399.16
2022-10-24T08:49:53.374Z,98394.75
2022-10-24T08:52:27.330Z,98400.84
2022-10-24T08:54:57.571Z,98393.22
2022-10-24T08:57:29.923Z,98389.81
2022-10-24T09:00:01.084Z,98406.66
2022-10-24T09:02:34.259Z,98416.00
2022-10-24T09:05:08.417Z,98402.91
2022-10-24T09:07:36.832Z,98411.16
2022-10-24T09:10:14.519Z,98414.50
2022-10-24T09:12:44.241Z,98417.09
2022-10-24T09:15:17.335Z,98424.88
2022-10-24T09:17:46.681Z,98431.19
2022-10-24T09:20:25.422Z,98425.00
2022-10-24T09:22:55.322Z,98432.34
2022-10-24T09:25:25.396Z,98426.59
2022-10-24T09:27:55.189Z,98424.31
2022-10-24T09:30:30.024Z,98427.81
2022-10-24T09:33:12.769Z,98434.22
2022-10-24T09:35:41.641Z,98440.44
2022-10-24T09:38:31.916Z,98440.66
2022-10-24T09:41:04.631Z,98445.25
2022-10-24T09:43:40.113Z,98432.25
2022-10-24T09:46:11.527Z,98458.56
2022-10-24T09:48:49.225Z,98447.31
2022-10-24T09:51:25.718Z,98462.84
2022-10-24T09:54:07.693Z,98455.72
2022-10-24T09:56:38.710Z,98461.56
2022-10-24T09:59:36.978Z,98463.72
2022-10-24T10:02:24.441Z,98471.16
2022-10-24T10:05:18.519Z,98476.94
2022-10-24T10:07:49.843Z,98465.94
2022-10-24T10:10:27.531Z,98468.72
2022-10-24T10:13:23.709Z,98478.00
2022-10-24T10:15:55.666Z,98486.44
2022-10-24T10:18:33.991Z,98480.31
2022-10-24T10:21:09.349Z,98494.00
2022-10-24T10:23:39.023Z,98490.22
2022-10-24T10:26:24.487Z,98491.16
2022-10-24T10:29:02.166Z,98491.47
2022-10-24T10:31:41.128Z,98485.69
2022-10-24T10:34:21.189Z,98514.38
2022-10-24T10:37:19.913Z,98498.91
2022-10-24T10:40:03.540Z,98510.81
2022-10-24T10:42:37.083Z,98516.78
2022-10-24T10:45:17.203Z,98520.19
2022-10-24T10:48:00.037Z,98515.41
2022-10-24T10:50:38.406Z,98516.22
2022-10-24T10:53:24.473Z,98513.50
2022-10-24T10:56:02.129Z,98518.72
2022-10-24T10:58:39.912Z,98514.94
2022-10-24T11:01:23.307Z,98517.03
2022-10-24T11:04:03.301Z,98518.09
2022-10-24T11:06:40.082Z,98529.41
2022-10-24T11:09:28.573Z,98520.22
2022-10-24T11:12:08.068Z,98530.47
2022-10-24T11:14:39.913Z,98547.63
2022-10-24T11:17:14.197Z,98539.19
2022-10-24T11:19:55.716Z,98544.03
2022-10-24T11:22:28.075Z,98550.88
2022-10-24T11:25:00.775Z,98550.66
2022-10-24T11:27:36.985Z,98544.47
2022-10-24T11:30:13.240Z,98553.66
2022-10-24T11:32:47.170Z,98558.31
2022-10-24T11:35:26.741Z,98550.22
2022-10-24T11:37:59.373Z,98556.13
2022-10-24T11:40:31.204Z,98552.59
2022-10-24T11:43:11.716Z,98538.38
2022-10-24T11:45:48.384Z,98551.31
2022-10-24T11:48:23.085Z,98545.66
2022-10-24T11:50:56.660Z,98551.06
2022-10-24T11:53:42.999Z,98553.66
2022-10-24T11:56:17.225Z,98561.09
2022-10-24T11:58:53.505Z,98557.81
2022-10-24T12:01:48.269Z,98542.84
2022-10-24T12:04:34.153Z,98553.19
2022-10-24T12:07:53.532Z,98551.31
2022-10-24T12:10:41.735Z,98552.38
2022-10-24T12:13:24.519Z,98557.91
2022-10-24T12:16:04.055Z,98563.28
2022-10-24T12:18:35.674Z,98547.56
2022-10-24T12:21:07.096Z,98562.41
2022-10-24T12:23:37.157Z,98556.72
2022-10-24T12:26:08.045Z,98549.91
2022-10-24T12:28:38.347Z,98545.53
2022-10-24T12:31:25.294Z,98552.91
2022-10-24T12:34:46.094Z,98553.53
2022-10-24T12:37:35.368Z,98560.34
2022-10-24T12:40:33.492Z,98544.75
2022-10-24T12:43:28.790Z,98546.91
2022-10-24T12:46:00.072Z,98541.13
2022-10-24T12:48:36.947Z,98551.25
2022-10-24T12:51:22.291Z,98530.38
2022-10-24T12:54:16.210Z,98521.50
2022-10-24T12:57:23.723Z,98532.09
2022-10-24T12:59:56.895Z,98514.13
2022-10-24T13:02:34.197Z,98515.34
2022-10-24T13:05:13.390Z,98518.81
2022-10-24T13:07:56.060Z,98518.44
2022-10-24T13:10:39.001Z,98521.03
2022-10-24T13:13:48.904Z,98515.78
2022-10-24T13:16:33.394Z,98503.25
2022-10-24T13:19:17.045Z,98482.78
2022-10-24T13:21:50.344Z,98492.28
2022-10-24T13:24:30.775Z,98507.78
2022-10-24T13:27:30.191Z,98508.25
2022-10-24T13:30:22.793Z,98518.56
2022-10-24T13:33:40.878Z,98511.16
2022-10-24T13:36:16.536Z,98500.25
2022-10-24T13:38:50.530Z,98506.00
2022-10-24T13:41:26.560Z,98503.16
2022-10-24T13:44:01.214Z,98498.94
2022-10-24T13:46:36.824Z,98504.38
2022-10-24T13:49:07.788Z,98510.41
2022-10-24T13:51:44.174Z,98515.19
2022-10-24T13:54:39.508Z,98516.59
2022-10-24T13:57:24.598Z,98512.72
2022-10-24T13:59:58.879Z,98516.66
2022-10-24T14:02:32.411Z,98524.50
2022-10-24T14:05:05.243Z,98515.59
2022-10-24T14:07:34.755Z,98520.44
2022-10-24T14:10:08.856Z,98526.56
2022-10-24T14:12:40.404Z,98528.25
2022-10-24T14:15:18.746Z,98543.50
2022-10-24T14:17:55.552Z,98534.91
2022-10-24T14:20:27.664Z,98557.84
2022-10-24T14:22:56.360Z,98551.91
2022-10-24T14:25:29.121Z,98562.91
2022-10-24T14:28:00.913Z,98560.09
2022-10-24T14:30:34.379Z,98569.13
2022-10-24T14:33:08.381Z,98566.94
2022-10-24T14:35:38.251Z,98572.59
2022-10-24T14:38:09.733Z,98576.88
2022-10-24T14:40:38.492Z,98575.66
2022-10-24T14:43:07.087Z,98576.38
2022-10-24T14:45:35.642Z,98569.31
2022-10-24T14:48:23.685Z,98565.50
2022-10-24T14:50:53.811Z,98566.22
2022-10-24T14:53:34.934Z,98569.09
2022-10-24T14:56:18.866Z,98566.97
2022-10-24T14:58:52.565Z,98568.44
2022-10-24T15:01:23.248Z,98568.03
2022-10-24T15:03:53.049Z,98561.97
2022-10-24T15:06:26.484Z,98563.06
2022-10-24T15:09:16.874Z,98564.94
2022-10-24T15:11:47.782Z,98568.44
2022-10-24T15:14:34.044Z,98570.16
2022-10-24T15:17:06.210Z,98577.63
2022-10-24T15:19:38.851Z,98579.13
2022-10-24T15:22:25.278Z,98600.53
2022-10-24T15:24:56.080Z,98594.88
2022-10-24T15:27:27.720Z,98583.31
2022-10-24T15:29:56.201Z,98579.09
2022-10-24T15:32:26.391Z,98587.22
2022-10-24T15:34:55.917Z,98591.75
2022-10-24T15:37:28.478Z,98586.16
2022-10-24T15:39:57.029Z,98586.00
2022-10-24T15:42:25.298Z,98583.69
2022-10-24T15:44:53.770Z,98585.81
2022-10-24T15:47:23.805Z,98584.81
2022-10-24T15:49:52.610Z,98592.88
2022-10-24T15:52:21.466Z,98599.44
2022-10-24T15:54:51.158Z,98600.69
2022-10-24T15:57:19.882Z,98597.38
2022-10-24T15:59:48.316Z,98599.38
2022-10-24T16:02:22.110Z,98596.41
2022-10-24T16:04:50.644Z,98608.13
2022-10-24T16:07:19.609Z,98596.44
2022-10-24T16:09:47.996Z,98599.19
2022-10-24T16:12:17.775Z,98601.94
2022-10-24T16:14:46.309Z,98613.53
2022-10-24T16:17:14.707Z,98606.13
2022-10-24T16:19:43.107Z,98608.38
2022-10-24T16:22:12.171Z,98617.13
2022-10-24T16:24:40.554Z,98610.50
2022-10-24T16:27:08.911Z,98609.81
2022-10-24T16:29:38.734Z,98616.25
2022-10-24T16:32:07.240Z,98597.38
2022-10-24T16:34:35.682Z,98608.44
2022-10-24T16:37:04.101Z,98613.19
2022-10-24T16:39:33.826Z,98621.38
2022-10-24T16:42:04.597Z,98621.28
2022-10-24T16:44:36.845Z,98615.41
2022-10-24T16:47:06.904Z,98617.22
2022-10-24T16:49:35.219Z,98631.97
2022-10-24T16:52:03.564Z,98637.28
2022-10-24T16:54:32.361Z,98638.78
2022-10-24T16:57:01.023Z,98628.38
2022-10-24T16:59:29.664Z,98627.16
2022-10-24T17:01:58.487Z,98639.03
2022-10-24T17:04:31.443Z,98635.81
2022-10-24T17:07:04.211Z,98644.75
2022-10-24T17:09:32.961Z,98643.00
2022-10-24T17:12:01.568Z,98637.97
2022-10-24T17:14:30.435Z,98647.06
2022-10-24T17:16:59.088Z,98643.34
2022-10-24T17:19:29.151Z,98648.06
2022-10-24T17:21:57.945Z,98642.66
2022-10-24T17:24:27.932Z,98653.91
2022-10-24T17:26:56.442Z,98653.63
2022-10-24T17:29:27.308Z,98655.16
2022-10-24T17:31:56.453Z,98652.41
2022-10-24T17:34:25.806Z,98647.78
2022-10-24T17:37:04.745Z,98660.72
2022-10-24T17:39:41.594Z,98653.03
2022-10-24T17:42:13.391Z,98664.53
2022-10-24T17:44:42.171Z,98670.50
2022-10-24T17:47:11.046Z,98674.91
2022-10-24T17:49:39.479Z,98671.38
2022-10-24T17:52:12.448Z,98678.50
2022-10-24T17:54:45.799Z,98689.41
2022-10-24T17:57:14.384Z,98689.41
2022-10-24T17:59:42.810Z,98691.38
2022-10-24T18:02:13.729Z,98693.00
2022-10-24T18:04:44.483Z,98701.16
2022-10-24T18:07:15.029Z,98698.97
2022-10-24T18:09:43.406Z,98710.03
2022-10-24T18:12:11.861Z,98709.59
2022-10-24T18:14:40.332Z,98711.16
2022-10-24T18:17:08.657Z,98709.97
2022-10-24T18:19:37.472Z,98712.44
2022-10-24T18:22:05.974Z,98707.81
2022-10-24T18:24:35.784Z,98708.69
2022-10-24T18:27:04.285Z,98722.22
2022-10-24T18:29:32.989Z,98717.09
2022-10-24T18:32:01.614Z,98719.38
2022-10-24T18:34:30.289Z,98722.09
2022-10-24T18:36:58.862Z,98722.97
2022-10-24T18:39:29.272Z,98726.91
2022-10-24T18:42:05.386Z,98713.59
2022-10-24T18:44:36.245Z,98735.53
2022-10-24T18:47:07.234Z,98726.38
2022-10-24T18:49:36.430Z,98736.22
2022-10-24T18:52:15.526Z,98731.94
2022-10-24T18:55:01.982Z,98730.22
2022-10-24T18:57:34.428Z,98736.31
2022-10-24T19:00:03.123Z,98732.19
2022-10-24T19:02:36.170Z,98739.28
2022-10-24T19:05:32.360Z,98727.13
2022-10-24T19:08:00.895Z,98725.44
2022-10-24T19:10:29.724Z,98723.16
2022-10-24T19:12:59.778Z,98725.81
2022-10-24T19:15:29.031Z,98727.63
2022-10-24T19:17:57.547Z,98736.13
2022-10-24T19:20:32.228Z,98729.97
2022-10-24T19:23:05.036Z,98730.09
2022-10-24T19:25:34.524Z,98736.56
2022-10-24T19:28:12.421Z,98739.50
2022-10-24T19:30:42.218Z,98738.66
2022-10-24T19:33:10.576Z,98738.88
2022-10-24T19:35:40.151Z,98742.72
2022-10-24T19:38:08.760Z,98755.16
2022-10-24T19:40:37.794Z,98742.66
2022-10-24T19:43:07.740Z,98750.22
2022-10-24T19:45:39.546Z,98749.97
2022-10-24T19:48:12.260Z,98742.03
2022-10-24T19:50:40.741Z,98742.72
2022-10-24T19:53:09.179Z,98739.22
2022-10-24T19:55:38.105Z,98748.19
2022-10-24T19:58:10.253Z,98746.72
2022-10-24T20:00:38.629Z,98744.31
2022-10-24T20:03:07.283Z,98738.69
2022-10-24T20:05:36.162Z,98752.28
2022-10-24T20:08:04.646Z,98757.50
2022-10-24T20:10:33.070Z,98751.81
2022-10-24T20:13:04.472Z,98754.47
2022-10-24T20:15:34.277Z,98749.66
2022-10-24T20:18:02.695Z,98756.97
2022-10-24T20:20:31.081Z,98764.88
2022-10-24T20:22:59.545Z,98755.44
2022-10-24T20:25:28.138Z,98776.25
2022-10-24T20:27:56.580Z,98772.31
2022-10-24T20:30:25.116Z,98781.16
2022-10-24T20:32:55.136Z,98780.47
2022-10-24T20:35:23.701Z,98790.28
2022-10-24T20:37:52.064Z,98783.66
2022-10-24T20:40:21.265Z,98788.44
2022-10-24T20:42:51.856Z,98796.63
2022-10-24T20:45:22.966Z,98795.78
2022-10-24T20:47:54.721Z,98805.63
2022-10-24T20:50:23.212Z,98809.72
2022-10-24T20:52:52.646Z,98818.06
2022-10-24T20:55:31.691Z,98816.88
2022-10-24T20:58:12.014Z,98817.81
2022-10-24T21:03:12.202Z,98823.66
2022-10-24T21:05:40.800Z,98820.94
2022-10-24T21:08:09.122Z,98824.38
2022-10-24T21:10:37.472Z,98838.72
2022-10-24T21:13:05.950Z,98830.53
2022-10-24T21:15:34.364Z,98835.97
2022-10-24T21:18:04.749Z,98836.94
2022-10-24T21:20:34.436Z,98844.81
2022-10-24T21:23:02.839Z,98843.31
2022-10-24T21:25:31.479Z,98844.81
2022-10-24T21:27:59.870Z,98842.06
2022-10-24T21:30:28.196Z,98853.78
2022-10-24T21:32:56.786Z,98850.13
2022-10-24T21:35:25.262Z,98854.34
2022-10-24T21:37:55.290Z,98860.50
2022-10-24T21:40:23.766Z,98857.53
2022-10-24T21:42:52.074Z,98854.09
2022-10-24T21:45:20.541Z,98863.38
2022-10-24T21:47:48.893Z,98862.50
2022-10-24T21:50:17.329Z,98865.31
2022-10-24T21:52:45.987Z,98862.66
2022-10-24T21:55:15.940Z,98867.09
2022-10-24T21:57:44.476Z,98876.06
2022-10-24T22:00:14.723Z,98874.22
2022-10-24T22:02:43.226Z,98878.84
2022-10-24T22:05:11.637Z,98880.03
2022-10-24T22:07:40.003Z,98886.69
2022-10-24T22:10:09.768Z,98889.16
2022-10-24T22:12:39.761Z,98885.94
2022-10-24T22:15:10.414Z,98883.13
2022-10-24T22:17:38.840Z,98887.50
2022-10-24T22:20:08.033Z,98891.84
2022-10-24T22:22:36.396Z,98890.22
2022-10-24T22:25:05.369Z,98890.50
2022-10-24T22:27:33.776Z,98893.41
2022-10-24T22:30:03.484Z,98891.88
2022-10-24T22:32:32.164Z,98885.50
2022-10-24T22:35:01.074Z,98897.41
2022-10-24T22:37:32.610Z,98894.16
2022-10-24T22:40:01.559Z,98900.06
2022-10-24T22:42:30.317Z,98899.16
2022-10-24T22:44:59.179Z,98906.69
2022-10-24T22:47:43.054Z,98912.59
2022-10-24T22:50:21.709Z,98906.56
2022-10-24T22:52:51.078Z,98901.09
2022-10-24T22:55:29.365Z,98906.97
2022-10-24T22:57:58.529Z,98910.56
2022-10-24T23:00:27.630Z,98910.78
2022-10-24T23:03:05.140Z,98912.19
2022-10-24T23:05:45.551Z,98914.72
2022-10-24T23:08:23.789Z,98918.56
2022-10-24T23:10:52.785Z,98921.38
2022-10-24T23:13:21.668Z,98932.00
2022-10-24T23:15:51.097Z,98930.47
2022-10-24T23:18:21.360Z,98934.19
2022-10-24T23:20:53.981Z,98939.38
2022-10-24T23:23:29.251Z,98942.94
2022-10-24T23:26:04.757Z,98946.59
2022-10-24T23:28:41.067Z,98947.25
2022-10-24T23:31:10.011Z,98948.00
2022-10-24T23:33:40.159Z,98954.09
2022-10-24T23:36:19.852Z,98957.03
2022-10-24T23:38:49.015Z,98962.28
2022-10-24T23:41:17.869Z,98957.47
2022-10-24T23:43:46.725Z,98960.19
2022-10-24T23:46:26.266Z,98956.41
2022-10-24T23:49:13.658Z,98951.84
2022-10-24T23:51:48.065Z,98962.44
2022-10-24T23:54:20.568Z,98958.06
2022-10-24T23:56:49.533Z,98964.59
2022-10-24T23:59:17.908Z,98967.50
